createdAt,value
2023-05-08T00:00:17.250Z,51.6
2023-05-08T00:01:18.441Z,51.7
2023-05-08T00:02:19.353Z,51.7
2023-05-08T00:03:20.391Z,51.6
2023-05-08T00:04:21.332Z,51.5
2023-05-08T00:05:22.338Z,51.4
2023-05-08T00:06:23.243Z,50.9
2023-05-08T00:07:24.439Z,51.4
2023-05-08T00:08:25.378Z,51.5
2023-05-08T00:09:26.332Z,51.6
2023-05-08T00:10:27.438Z,52
2023-05-08T00:11:28.333Z,52.1
2023-05-08T00:12:29.420Z,52.3
2023-05-08T00:13:30.282Z,52.1
2023-05-08T00:14:32.604Z,52.2
2023-05-08T00:15:33.323Z,52.2
2023-05-08T00:16:34.318Z,52.3
2023-05-08T00:17:35.406Z,51.9
2023-05-08T00:18:36.300Z,52.2
2023-05-08T00:19:37.221Z,52.5
2023-05-08T00:20:38.490Z,52.6
2023-05-08T00:21:39.301Z,52.4
2023-05-08T00:22:40.341Z,52.2
2023-05-08T00:23:41.322Z,52.1
2023-05-08T00:24:42.388Z,52.1
2023-05-08T00:25:43.474Z,51.6
2023-05-08T00:26:44.259Z,51.9
2023-05-08T00:27:45.483Z,52.1
2023-05-08T00:28:46.406Z,52
2023-05-08T00:29:47.308Z,52
2023-05-08T00:30:48.280Z,51.8
2023-05-08T00:31:49.299Z,51.8
2023-05-08T00:32:50.293Z,52
2023-05-08T00:33:51.377Z,52.2
2023-05-08T00:34:52.419Z,52.2
2023-05-08T00:35:53.393Z,52.1
2023-05-08T00:36:54.438Z,52.1
2023-05-08T00:37:55.512Z,52.3
2023-05-08T00:38:56.400Z,52.4
2023-05-08T00:39:57.224Z,52
2023-05-08T00:40:58.299Z,52.4
2023-05-08T00:41:59.340Z,52.6
2023-05-08T00:43:00.276Z,52.6
2023-05-08T00:44:01.417Z,52.5
2023-05-08T00:45:02.484Z,52.5
2023-05-08T00:46:03.333Z,52.6
2023-05-08T00:47:04.359Z,52.5
2023-05-08T00:48:05.370Z,52.6
2023-05-08T00:49:06.360Z,52.6
2023-05-08T00:50:07.361Z,52.6
2023-05-08T00:51:08.537Z,52.6
2023-05-08T00:52:09.569Z,52.9
2023-05-08T00:53:10.464Z,52.5
2023-05-08T00:54:11.464Z,52.8
2023-05-08T00:55:12.382Z,52.9
2023-05-08T00:56:13.261Z,52.9
2023-05-08T00:57:14.298Z,53
2023-05-08T00:58:15.300Z,53.1
2023-05-08T00:59:16.320Z,53.2
2023-05-08T01:00:17.316Z,53.3
2023-05-08T01:01:18.324Z,53.4
2023-05-08T01:02:19.491Z,53.4
2023-05-08T01:03:20.430Z,53.5
2023-05-08T01:04:21.460Z,53.5
2023-05-08T01:05:22.280Z,53.4
2023-05-08T01:06:23.261Z,52.4
2023-05-08T01:07:24.280Z,52.9
2023-05-08T01:08:25.401Z,52.9
2023-05-08T01:09:26.440Z,52.9
2023-05-08T01:10:27.301Z,53
2023-05-08T01:11:28.278Z,53
2023-05-08T01:12:29.305Z,52.9
2023-05-08T01:13:30.260Z,53
2023-05-08T01:14:31.406Z,53.1
2023-05-08T01:15:32.361Z,53.1
2023-05-08T01:16:33.516Z,53.1
2023-05-08T01:17:34.351Z,52.8
2023-05-08T01:18:35.275Z,53
2023-05-08T01:19:36.370Z,53.2
2023-05-08T01:20:37.343Z,53.3
2023-05-08T01:21:38.312Z,53.6
2023-05-08T01:22:39.300Z,53.6
2023-05-08T01:23:41.042Z,53.7
2023-05-08T01:24:42.345Z,53.7
2023-05-08T01:25:43.344Z,53.5
2023-05-08T01:26:44.240Z,53.4
2023-05-08T01:27:45.382Z,53.4
2023-05-08T01:28:46.310Z,53.4
2023-05-08T01:29:47.386Z,53.5
2023-05-08T01:30:48.305Z,53.6
2023-05-08T01:31:49.334Z,53.7
2023-05-08T01:32:50.385Z,53.7
2023-05-08T01:36:57.621Z,53.5
2023-05-08T01:37:58.577Z,53.5
2023-05-08T01:38:59.476Z,53.5
2023-05-08T01:40:00.476Z,53.6
2023-05-08T01:41:01.436Z,53.8
2023-05-08T01:42:02.367Z,53.8
2023-05-08T01:43:03.316Z,53.7
2023-05-08T01:44:04.375Z,53.8
2023-05-08T01:45:05.423Z,53.7
2023-05-08T01:46:06.356Z,53.6
2023-05-08T01:47:07.347Z,53.7
2023-05-08T01:48:08.623Z,53.7
2023-05-08T01:49:09.532Z,53.7
2023-05-08T01:50:10.644Z,53.7
2023-05-08T01:51:11.449Z,53.6
2023-05-08T01:52:12.300Z,53.6
2023-05-08T01:53:13.599Z,53.6
2023-05-08T01:54:14.483Z,53.5
2023-05-08T01:55:15.249Z,53.6
2023-05-08T01:56:16.258Z,53.6
2023-05-08T01:57:17.358Z,53.6
2023-05-08T01:58:18.300Z,53.7
2023-05-08T01:59:19.298Z,53.9
2023-05-08T02:00:20.296Z,53.8
2023-05-08T02:01:21.438Z,53.9
2023-05-08T02:02:22.495Z,53.8
2023-05-08T02:03:23.457Z,53.7
2023-05-08T02:04:24.693Z,53.7
2023-05-08T02:05:25.339Z,53.2
2023-05-08T02:06:26.370Z,53.5
2023-05-08T02:07:28.031Z,53.5
2023-05-08T02:08:30.014Z,53.4
2023-05-08T02:09:31.358Z,53.4
2023-05-08T02:10:32.338Z,53.5
2023-05-08T02:11:33.476Z,53.4
2023-05-08T02:12:34.592Z,53.4
2023-05-08T02:13:36.475Z,53.5
2023-05-08T02:14:37.414Z,53.9
2023-05-08T02:15:38.364Z,54.3
2023-05-08T02:16:39.364Z,54.4
2023-05-08T02:17:40.334Z,54.5
2023-05-08T02:18:41.376Z,54.6
2023-05-08T02:19:42.355Z,54.5
2023-05-08T02:20:43.334Z,54.5
2023-05-08T02:21:44.365Z,54.4
2023-05-08T02:22:45.316Z,54.2
2023-05-08T02:23:46.537Z,54
2023-05-08T02:24:47.759Z,54.3
2023-05-08T02:25:48.390Z,53.9
2023-05-08T02:26:49.339Z,54.2
2023-05-08T02:27:50.396Z,54.1
2023-05-08T02:28:51.300Z,54.3
2023-05-08T02:29:52.336Z,54.4
2023-05-08T02:30:53.403Z,54.5
2023-05-08T02:31:54.457Z,54.5
2023-05-08T02:32:56.569Z,54.4
2023-05-08T02:33:56.617Z,54.5
2023-05-08T02:35:02.933Z,54.7
2023-05-08T02:35:59.414Z,55
2023-05-08T02:37:00.458Z,55
2023-05-08T02:38:01.401Z,54.7
2023-05-08T02:39:02.399Z,55.2
2023-05-08T02:40:03.321Z,55.2
2023-05-08T02:41:04.341Z,55.1
2023-05-08T02:42:05.375Z,54.9
2023-05-08T02:43:06.428Z,55
2023-05-08T02:44:07.316Z,55.2
2023-05-08T02:45:08.336Z,55.4
2023-05-08T02:46:09.434Z,55.4
2023-05-08T02:47:10.599Z,55.5
2023-05-08T02:48:11.424Z,55.2
2023-05-08T02:49:12.492Z,55.2
2023-05-08T02:50:13.674Z,55.3
2023-05-08T02:51:14.519Z,55.3
2023-05-08T02:52:15.431Z,55.4
2023-05-08T02:53:17.344Z,55.3
2023-05-08T02:54:18.358Z,55.3
2023-05-08T02:55:19.415Z,55.3
2023-05-08T02:56:20.340Z,55.4
2023-05-08T02:57:21.451Z,55.6
2023-05-08T02:58:22.430Z,55.5
2023-05-08T02:59:23.514Z,55.5
2023-05-08T03:00:24.410Z,55.6
2023-05-08T03:01:25.465Z,55.6
2023-05-08T03:02:26.442Z,55.6
2023-05-08T03:03:27.489Z,55.8
2023-05-08T03:04:28.530Z,56
2023-05-08T03:05:29.351Z,55.7
2023-05-08T03:06:30.368Z,56
2023-05-08T03:07:31.350Z,55.9
2023-05-08T03:08:32.579Z,56
2023-05-08T03:09:33.367Z,56.1
2023-05-08T03:10:34.306Z,56.2
2023-05-08T03:11:35.629Z,55.4
2023-05-08T03:12:36.688Z,55.6
2023-05-08T03:13:38.137Z,56.4
2023-05-08T03:14:39.646Z,56.7
2023-05-08T03:15:40.546Z,56.8
2023-05-08T03:16:41.450Z,56.7
2023-05-08T03:17:42.462Z,56.7
2023-05-08T03:18:43.687Z,56.4
2023-05-08T03:19:44.332Z,56.2
2023-05-08T03:20:45.384Z,56.1
2023-05-08T03:21:46.345Z,55.9
2023-05-08T03:22:47.782Z,55.9
2023-05-08T03:23:48.451Z,56.2
2023-05-08T03:24:49.308Z,56.3
2023-05-08T03:25:50.367Z,56
2023-05-08T03:26:51.392Z,56.2
2023-05-08T03:27:52.450Z,56.2
2023-05-08T03:28:53.387Z,56.1
2023-05-08T03:29:54.330Z,56.2
2023-05-08T03:30:55.367Z,56.2
2023-05-08T03:31:56.411Z,56.1
2023-05-08T03:32:57.337Z,55.9
2023-05-08T03:33:58.688Z,55.7
2023-05-08T03:34:59.334Z,55.7
2023-05-08T03:36:00.446Z,55.6
2023-05-08T03:37:01.343Z,55.5
2023-05-08T03:38:02.401Z,55.4
2023-05-08T03:39:03.585Z,55.4
2023-05-08T03:40:04.647Z,55.4
2023-05-08T03:41:06.622Z,55.5
2023-05-08T03:42:07.494Z,55.6
2023-05-08T03:43:08.636Z,55.6
2023-05-08T03:44:09.449Z,55.6
2023-05-08T03:45:10.713Z,55.5
2023-05-08T03:46:11.560Z,55.5
2023-05-08T03:47:12.467Z,55.3
2023-05-08T03:48:14.091Z,55.7
2023-05-08T03:49:16.135Z,55.8
2023-05-08T03:50:17.307Z,55.4
2023-05-08T03:51:18.387Z,55.7
2023-05-08T03:52:19.360Z,55.6
2023-05-08T03:53:20.330Z,55.3
2023-05-08T03:54:21.340Z,55.1
2023-05-08T03:55:22.314Z,55
2023-05-08T03:56:25.373Z,55.1
2023-05-08T03:57:24.495Z,55.1
2023-05-08T03:58:25.572Z,54.8
2023-05-08T03:59:26.335Z,54.4
2023-05-08T04:00:27.916Z,54.6
2023-05-08T04:01:29.661Z,54.7
2023-05-08T04:02:30.553Z,54.7
2023-05-08T04:03:31.598Z,54.6
2023-05-08T04:04:32.384Z,54.7
2023-05-08T04:05:33.400Z,54.3
2023-05-08T04:06:46.112Z,54.6
2023-05-08T04:07:36.056Z,54.8
2023-05-08T04:08:37.877Z,54.9
2023-05-08T04:09:39.673Z,54.8
2023-05-08T04:10:40.573Z,54.8
2023-05-08T04:11:41.959Z,54.3
2023-05-08T04:12:43.565Z,54.7
2023-05-08T04:13:44.354Z,54.8
2023-05-08T04:14:45.495Z,54.8
2023-05-08T04:15:46.476Z,54.8
2023-05-08T04:16:47.474Z,54.9
2023-05-08T04:17:48.620Z,54.4
2023-05-08T04:18:49.419Z,54.6
2023-05-08T04:19:50.420Z,54.8
2023-05-08T04:20:51.377Z,54.9
2023-05-08T04:21:52.419Z,54.9
2023-05-08T04:22:53.379Z,54.9
2023-05-08T04:23:54.459Z,54.4
2023-05-08T04:24:55.470Z,54.7
2023-05-08T04:25:56.521Z,54.8
2023-05-08T04:26:57.386Z,54.9
2023-05-08T04:27:58.462Z,55
2023-05-08T04:28:59.448Z,55.2
2023-05-08T04:30:00.457Z,55.1
2023-05-08T04:31:01.780Z,54.8
2023-05-08T04:32:02.464Z,54.9
2023-05-08T04:33:03.581Z,55
2023-05-08T04:34:04.491Z,55
2023-05-08T04:35:05.522Z,55
2023-05-08T04:36:06.480Z,55
2023-05-08T04:37:07.380Z,55
2023-05-08T04:38:08.479Z,55
2023-05-08T04:39:09.500Z,54.9
2023-05-08T04:40:10.440Z,55.2
2023-05-08T04:41:11.552Z,55.6
2023-05-08T04:42:12.482Z,55.7
2023-05-08T04:43:13.466Z,55.6
2023-05-08T04:44:14.423Z,55.6
2023-05-08T04:45:15.503Z,55.6
2023-05-08T04:46:16.611Z,55.7
2023-05-08T04:47:17.511Z,55.6
2023-05-08T04:48:18.420Z,55.8
2023-05-08T04:49:20.102Z,55.9
2023-05-08T04:50:21.527Z,55.6
2023-05-08T04:51:22.480Z,55.5
2023-05-08T04:52:23.591Z,55.4
2023-05-08T04:53:24.460Z,55.3
2023-05-08T04:54:25.485Z,55.3
2023-05-08T04:55:26.451Z,55.3
2023-05-08T04:56:27.450Z,55.5
2023-05-08T04:57:28.484Z,55.4
2023-05-08T04:58:29.447Z,55.2
2023-05-08T04:59:30.875Z,54.8
2023-05-08T05:00:32.705Z,55.1
2023-05-08T05:01:33.513Z,55
2023-05-08T05:02:34.497Z,55.1
2023-05-08T05:03:35.646Z,55
2023-05-08T05:04:36.499Z,55.3
2023-05-08T05:05:39.121Z,55.2
2023-05-08T05:06:40.649Z,55.1
2023-05-08T05:07:42.057Z,54.5
2023-05-08T05:08:59.037Z,54.3
2023-05-08T05:10:00.494Z,54.3
2023-05-08T05:11:01.487Z,53.1
2023-05-08T05:12:02.440Z,53.4
2023-05-08T05:13:03.573Z,53.4
2023-05-08T05:14:05.470Z,53.3
2023-05-08T05:15:06.536Z,52.9
2023-05-08T05:16:07.785Z,52.6
2023-05-08T05:17:08.501Z,52.8
2023-05-08T05:18:09.543Z,52.9
2023-05-08T05:19:10.455Z,53.3
2023-05-08T05:20:11.465Z,53.6
2023-05-08T05:21:12.494Z,53.9
2023-05-08T05:22:13.558Z,54.2
2023-05-08T05:23:14.417Z,54.7
2023-05-08T05:24:15.417Z,54.8
2023-05-08T05:25:16.771Z,54.7
2023-05-08T05:26:17.480Z,54.4
2023-05-08T05:27:19.985Z,54.2
2023-05-08T05:28:19.477Z,54.4
2023-05-08T05:29:20.426Z,54.5
2023-05-08T05:30:21.846Z,54.4
2023-05-08T05:31:22.531Z,54.1
2023-05-08T05:32:23.529Z,53.9
2023-05-08T05:33:24.529Z,53.5
2023-05-08T05:34:25.555Z,53.3
2023-05-08T05:35:26.496Z,52.8
2023-05-08T05:36:27.612Z,53
2023-05-08T05:37:28.873Z,53
2023-05-08T05:38:30.456Z,53.3
2023-05-08T05:39:31.435Z,53.8
2023-05-08T05:40:32.453Z,54
2023-05-08T05:41:33.506Z,53.9
2023-05-08T05:42:34.436Z,53.6
2023-05-08T05:43:35.736Z,53.3
2023-05-08T05:44:37.014Z,53.1
2023-05-08T05:45:39.291Z,53.1
2023-05-08T05:46:42.164Z,52.8
2023-05-08T05:47:41.488Z,53
2023-05-08T05:48:42.521Z,53.3
2023-05-08T05:49:43.444Z,53.2
2023-05-08T05:50:44.472Z,53.2
2023-05-08T05:51:45.485Z,52.7
2023-05-08T05:52:46.556Z,52.8
2023-05-08T05:53:48.257Z,52.6
2023-05-08T05:54:49.471Z,52.5
2023-05-08T05:55:50.789Z,52.1
2023-05-08T05:56:51.420Z,52
2023-05-08T05:57:52.408Z,52.5
2023-05-08T05:58:53.454Z,52.9
2023-05-08T05:59:54.975Z,52.9
2023-05-08T06:00:55.610Z,52.5
2023-05-08T06:01:56.496Z,52.4
2023-05-08T06:02:57.666Z,52.5
2023-05-08T06:03:58.580Z,52.7
2023-05-08T06:04:59.486Z,52.5
2023-05-08T06:06:00.562Z,52.6
2023-05-08T06:07:01.435Z,52.3
2023-05-08T06:08:02.460Z,51.9
2023-05-08T06:09:03.515Z,51.7
2023-05-08T06:10:04.910Z,51.8
2023-05-08T06:11:06.569Z,51.8
2023-05-08T06:12:07.622Z,51.6
2023-05-08T06:13:08.496Z,51.1
2023-05-08T06:14:09.500Z,50.7
2023-05-08T06:15:11.380Z,50.5
2023-05-08T06:16:12.816Z,49.7
2023-05-08T06:17:13.576Z,49.3
2023-05-08T06:18:14.423Z,49.1
2023-05-08T06:19:15.498Z,48.1
2023-05-08T06:20:16.688Z,48.2
2023-05-08T06:21:17.500Z,47.9
2023-05-08T06:22:18.480Z,47.6
2023-05-08T06:23:19.494Z,47.3
2023-05-08T06:24:20.571Z,47.4
2023-05-08T06:25:21.434Z,47.3
2023-05-08T06:26:23.552Z,46.8
2023-05-08T06:27:23.476Z,46.8
2023-05-08T06:28:24.630Z,47.1
2023-05-08T06:29:25.573Z,47.2
2023-05-08T06:30:26.425Z,46.8
2023-05-08T06:31:27.650Z,46.8
2023-05-08T06:32:28.553Z,47.3
2023-05-08T06:33:29.496Z,47.5
2023-05-08T06:34:30.560Z,47.7
2023-05-08T06:35:31.497Z,47.4
2023-05-08T06:36:32.448Z,47
2023-05-08T06:37:33.529Z,46.7
2023-05-08T06:38:34.332Z,46.5
2023-05-08T06:39:35.533Z,46
2023-05-08T06:40:36.503Z,45
2023-05-08T06:41:37.558Z,44.7
2023-05-08T06:42:38.540Z,44.9
2023-05-08T06:43:39.391Z,45
2023-05-08T06:44:40.458Z,45
2023-05-08T06:45:41.479Z,45.4
2023-05-08T06:46:42.515Z,45.3
2023-05-08T06:47:43.523Z,45.2
2023-05-08T06:48:44.548Z,46.4
2023-05-08T06:49:45.583Z,46.8
2023-05-08T06:50:46.575Z,46
2023-05-08T06:51:47.436Z,46.1
2023-05-08T06:52:48.458Z,46
2023-05-08T06:53:49.574Z,45.8
2023-05-08T06:54:50.482Z,46
2023-05-08T06:55:51.450Z,46.1
2023-05-08T06:56:52.616Z,44.7
2023-05-08T06:57:53.659Z,44
2023-05-08T06:59:04.807Z,44
2023-05-08T06:59:56.756Z,43.4
2023-05-08T07:00:57.555Z,44
2023-05-08T07:01:58.556Z,44
2023-05-08T07:02:59.519Z,43.9
2023-05-08T07:04:00.606Z,43.9
2023-05-08T07:05:01.529Z,44.1
2023-05-08T07:06:02.982Z,44.8
2023-05-08T07:07:04.550Z,44.5
2023-05-08T07:08:05.564Z,44.5
2023-05-08T07:09:06.559Z,43.8
2023-05-08T07:10:08.055Z,42.5
2023-05-08T07:11:08.783Z,42.4
2023-05-08T07:12:09.589Z,42.5
2023-05-08T07:13:10.832Z,43
2023-05-08T07:14:11.568Z,42.9
2023-05-08T07:15:24.446Z,43
2023-05-08T07:16:14.300Z,42.6
2023-05-08T07:17:15.409Z,42.8
2023-05-08T07:18:16.735Z,43.1
2023-05-08T07:19:17.469Z,42.1
2023-05-08T07:20:18.536Z,41.8
2023-05-08T07:21:19.617Z,41.4
2023-05-08T07:22:20.451Z,41.5
2023-05-08T07:23:21.598Z,41.2
2023-05-08T07:24:22.462Z,41
2023-05-08T07:25:23.516Z,41.1
2023-05-08T07:26:24.682Z,40.8
2023-05-08T07:27:25.534Z,40.9
2023-05-08T07:28:26.594Z,41.2
2023-05-08T07:29:27.467Z,41.3
2023-05-08T07:30:29.151Z,40.6
2023-05-08T07:31:30.795Z,40.5
2023-05-08T07:32:31.616Z,40.6
2023-05-08T07:33:32.596Z,40.3
2023-05-08T07:34:33.651Z,40.3
2023-05-08T07:35:34.459Z,40.6
2023-05-08T07:36:35.778Z,40.9
2023-05-08T07:37:36.575Z,40.6
2023-05-08T07:38:37.516Z,40.4
2023-05-08T07:39:38.713Z,39.9
2023-05-08T07:40:39.897Z,39.7
2023-05-08T07:41:40.928Z,39.6
2023-05-08T07:42:41.551Z,39.7
2023-05-08T07:43:42.483Z,39.5
2023-05-08T07:44:53.485Z,39.3
2023-05-08T07:45:44.599Z,39.6
2023-05-08T07:46:45.736Z,39.8
2023-05-08T07:47:46.543Z,39.7
2023-05-08T07:48:47.490Z,39.8
2023-05-08T07:49:48.557Z,40.1
2023-05-08T07:50:50.212Z,39.6
2023-05-08T07:51:51.558Z,39.4
2023-05-08T07:52:52.514Z,39.1
2023-05-08T07:53:54.155Z,38.5
2023-05-08T07:54:55.437Z,38.2
2023-05-08T07:55:56.552Z,37.9
2023-05-08T07:56:58.111Z,38.1
2023-05-08T07:57:59.792Z,37.2
2023-05-08T07:59:01.498Z,37.3
2023-05-08T08:00:02.626Z,38
2023-05-08T08:01:04.944Z,38.6
2023-05-08T08:02:06.626Z,39
2023-05-08T08:03:08.468Z,39.5
2023-05-08T08:04:09.815Z,39.8
2023-05-08T08:05:11.424Z,39.6
2023-05-08T08:06:12.768Z,39.3
2023-05-08T08:07:13.603Z,38.6
2023-05-08T08:08:14.719Z,38.4
2023-05-08T08:09:15.561Z,38.8
2023-05-08T08:10:16.889Z,39.2
2023-05-08T08:11:17.571Z,38.5
2023-05-08T08:12:18.446Z,38.2
2023-05-08T08:13:19.649Z,38.2
2023-05-08T08:14:20.689Z,38.9
2023-05-08T08:15:21.729Z,38.9
2023-05-08T08:16:22.588Z,38.6
2023-05-08T08:17:25.037Z,38.9
2023-05-08T08:18:25.818Z,38.4
2023-05-08T08:19:26.590Z,38.1
2023-05-08T08:20:27.592Z,37.5
2023-05-08T08:21:28.551Z,37.9
2023-05-08T08:22:29.548Z,37.6
2023-05-08T08:23:31.043Z,37.8
2023-05-08T08:24:32.697Z,37.4
2023-05-08T08:25:33.855Z,36.6
2023-05-08T08:26:34.657Z,36.8
2023-05-08T08:27:35.600Z,37.3
2023-05-08T08:28:36.534Z,37.3
2023-05-08T08:29:37.551Z,37.2
2023-05-08T08:30:38.518Z,36.5
2023-05-08T08:31:39.678Z,37
2023-05-08T08:32:40.714Z,37.3
2023-05-08T08:33:41.592Z,36.2
2023-05-08T08:34:43.415Z,35.5
2023-05-08T08:35:44.531Z,34.9
2023-05-08T08:36:45.640Z,34.1
2023-05-08T08:37:46.560Z,33.9
2023-05-08T08:38:47.735Z,34.6
2023-05-08T08:39:48.511Z,34.5
2023-05-08T08:40:49.551Z,34.1
2023-05-08T08:41:51.025Z,34.6
2023-05-08T08:42:53.524Z,34.8
2023-05-08T08:43:54.640Z,35
2023-05-08T08:44:55.702Z,34.5
2023-05-08T08:45:56.970Z,34.1
2023-05-08T08:46:57.576Z,34.1
2023-05-08T08:47:58.657Z,34
2023-05-08T08:48:59.711Z,33.1
2023-05-08T08:50:01.364Z,33.1
2023-05-08T08:51:02.523Z,33.2
2023-05-08T08:52:03.559Z,32.5
2023-05-08T08:53:04.556Z,32.1
2023-05-08T08:54:05.835Z,32.7
2023-05-08T08:55:06.788Z,32.5
2023-05-08T08:56:07.554Z,32.5
2023-05-08T08:57:08.449Z,33.1
2023-05-08T08:58:09.589Z,32.5
2023-05-08T08:59:11.252Z,33.4
2023-05-08T09:00:12.711Z,34.2
2023-05-08T09:01:13.728Z,34.5
2023-05-08T09:02:14.611Z,33.5
2023-05-08T09:03:15.614Z,33
2023-05-08T09:04:16.696Z,32.7
2023-05-08T09:05:17.536Z,31.4
2023-05-08T09:06:18.589Z,30.6
2023-05-08T09:07:20.200Z,30.1
2023-05-08T09:08:21.570Z,30.5
2023-05-08T09:09:22.652Z,30.7
2023-05-08T09:10:23.573Z,30.8
2023-05-08T09:11:24.611Z,31.2
2023-05-08T09:12:25.688Z,31.7
2023-05-08T09:13:26.699Z,31.7
2023-05-08T09:14:27.532Z,31.2
2023-05-08T09:15:28.608Z,30.6
2023-05-08T09:16:29.838Z,30.9
2023-05-08T09:17:30.962Z,30.9
2023-05-08T09:18:31.678Z,31
2023-05-08T09:19:32.517Z,30.4
2023-05-08T09:20:33.562Z,30.9
2023-05-08T09:21:34.597Z,30.6
2023-05-08T09:22:35.593Z,31.2
2023-05-08T09:23:36.492Z,31.2
2023-05-08T09:24:37.498Z,31.1
2023-05-08T09:25:38.561Z,30.8
2023-05-08T09:26:39.556Z,31.2
2023-05-08T09:27:40.569Z,30.8
2023-05-08T09:28:41.596Z,30.1
2023-05-08T09:29:42.553Z,30.8
2023-05-08T09:30:43.838Z,30.8
2023-05-08T09:31:44.648Z,30
2023-05-08T09:32:45.823Z,29.8
2023-05-08T09:33:46.575Z,29.6
2023-05-08T09:34:47.693Z,29.6
2023-05-08T09:35:49.029Z,29.9
2023-05-08T09:36:50.672Z,30.2
2023-05-08T09:37:52.075Z,30.2
2023-05-08T09:38:53.931Z,31
2023-05-08T09:39:54.590Z,30.7
2023-05-08T09:40:55.550Z,30.3
2023-05-08T09:41:56.931Z,29.6
2023-05-08T09:42:57.577Z,29.1
2023-05-08T09:43:58.619Z,29
2023-05-08T09:44:59.573Z,29.4
2023-05-08T09:46:00.859Z,29
2023-05-08T09:47:01.671Z,28.7
2023-05-08T09:48:03.372Z,28.5
2023-05-08T09:49:05.033Z,28.7
2023-05-08T09:50:06.856Z,29.1
2023-05-08T09:51:07.634Z,29.6
2023-05-08T09:52:09.094Z,29.3
2023-05-08T09:53:10.910Z,28.9
2023-05-08T09:54:11.592Z,28.7
2023-05-08T09:55:12.660Z,28.7
2023-05-08T09:56:13.761Z,29.1
2023-05-08T09:57:14.593Z,29.5
2023-05-08T09:58:15.986Z,29.6
2023-05-08T09:59:18.005Z,29.6
2023-05-08T10:00:19.691Z,29.2
2023-05-08T10:01:20.731Z,29.3
2023-05-08T10:02:21.677Z,29.3
2023-05-08T10:03:22.829Z,29.1
2023-05-08T10:04:23.635Z,29.2
2023-05-08T10:05:24.815Z,29.5
2023-05-08T10:06:26.133Z,29.2
2023-05-08T10:07:27.756Z,28.8
2023-05-08T10:08:28.611Z,29
2023-05-08T10:09:39.194Z,29.4
2023-05-08T10:10:31.073Z,29.1
2023-05-08T10:11:31.741Z,29.1
2023-05-08T10:12:32.657Z,29.1
2023-05-08T10:13:34.374Z,29.3
2023-05-08T10:14:35.677Z,29.5
2023-05-08T10:15:37.456Z,29.8
2023-05-08T10:16:38.802Z,29.8
2023-05-08T10:17:39.615Z,31.2
2023-05-08T10:18:40.619Z,32.3
2023-05-08T10:19:41.931Z,31.5
2023-05-08T10:20:42.635Z,30.5
2023-05-08T10:21:44.368Z,29.9
2023-05-08T10:22:45.677Z,29.5
2023-05-08T10:23:46.636Z,29.4
2023-05-08T10:24:47.642Z,29.2
2023-05-08T10:25:48.693Z,29.2
2023-05-08T10:27:02.920Z,28.5
2023-05-08T10:27:50.616Z,28.9
2023-05-08T10:28:51.614Z,28.9
2023-05-08T10:29:53.028Z,29.7
2023-05-08T10:30:54.690Z,29.9
2023-05-08T10:31:55.836Z,30
2023-05-08T10:32:57.010Z,29.8
2023-05-08T10:33:59.356Z,29.3
2023-05-08T10:35:00.662Z,29.5
2023-05-08T10:36:01.838Z,28.9
2023-05-08T10:37:02.628Z,28.5
2023-05-08T10:38:03.626Z,28.3
2023-05-08T10:39:04.779Z,28.7
2023-05-08T10:40:05.735Z,28.8
2023-05-08T10:41:06.677Z,28.9
2023-05-08T10:42:07.757Z,28.8
2023-05-08T10:43:08.665Z,28.9
2023-05-08T10:44:09.714Z,27.9
2023-05-08T10:45:10.715Z,28.2
2023-05-08T10:46:11.696Z,27.7
2023-05-08T10:47:12.805Z,27.4
2023-05-08T10:48:13.750Z,27.5
2023-05-08T10:49:14.772Z,27.6
2023-05-08T10:50:15.873Z,27.3
2023-05-08T10:51:16.695Z,27.7
2023-05-08T10:52:17.663Z,27.8
2023-05-08T10:53:18.943Z,27.9
2023-05-08T10:54:19.607Z,28.3
2023-05-08T10:55:20.626Z,28.6
2023-05-08T10:56:21.639Z,27.8
2023-05-08T10:57:22.638Z,27.5
2023-05-08T10:58:24.193Z,27.2
2023-05-08T10:59:26.038Z,26.7
2023-05-08T11:00:27.734Z,26.9
2023-05-08T11:01:28.729Z,26.2
2023-05-08T11:02:29.827Z,26.5
2023-05-08T11:03:32.412Z,27.3
2023-05-08T11:04:31.794Z,27.3
2023-05-08T11:05:32.715Z,26.1
2023-05-08T11:06:33.664Z,25.7
2023-05-08T11:07:34.733Z,25.8
2023-05-08T11:08:35.600Z,25.8
2023-05-08T11:09:36.724Z,25.5
2023-05-08T11:10:37.634Z,25.8
2023-05-08T11:11:38.650Z,25.6
2023-05-08T11:12:40.047Z,25.4
2023-05-08T11:13:40.752Z,25.7
2023-05-08T11:14:42.184Z,25.9
2023-05-08T11:15:43.771Z,26.2
2023-05-08T11:16:44.790Z,26.2
2023-05-08T11:17:45.829Z,27
2023-05-08T11:18:49.605Z,26.5
2023-05-08T11:19:47.684Z,26.6
2023-05-08T11:20:48.932Z,26.7
2023-05-08T11:21:49.651Z,27.2
2023-05-08T11:22:50.970Z,26.7
2023-05-08T11:23:52.439Z,26.7
2023-05-08T11:24:53.752Z,26.7
2023-05-08T11:25:54.597Z,26.2
2023-05-08T11:26:55.634Z,25.7
2023-05-08T11:27:56.658Z,25.9
2023-05-08T11:28:57.756Z,25.5
2023-05-08T11:29:59.118Z,25.3
2023-05-08T11:31:00.567Z,25.4
2023-05-08T11:32:02.011Z,25.6
2023-05-08T11:33:03.067Z,25.6
2023-05-08T11:34:04.064Z,25.2
2023-05-08T11:35:05.946Z,25.2
2023-05-08T11:36:06.749Z,24.8
2023-05-08T11:37:07.652Z,25.1
2023-05-08T11:38:08.651Z,25.2
2023-05-08T11:39:09.725Z,25.1
2023-05-08T11:40:11.609Z,25.3
2023-05-08T11:41:12.838Z,25.5
2023-05-08T11:42:13.637Z,25.4
2023-05-08T11:43:14.672Z,25.4
2023-05-08T11:44:15.667Z,25.1
2023-05-08T11:45:16.700Z,24.9
2023-05-08T11:46:18.151Z,24.9
2023-05-08T11:47:19.314Z,24.5
2023-05-08T11:48:21.198Z,24.3
2023-05-08T11:49:26.217Z,24.2
2023-05-08T11:50:24.710Z,24.4
2023-05-08T11:51:26.111Z,25.1
2023-05-08T11:52:27.729Z,25.4
2023-05-08T11:53:28.692Z,24.2
2023-05-08T11:54:29.653Z,23.9
2023-05-08T11:55:30.693Z,23.9
2023-05-08T11:56:31.679Z,23.7
2023-05-08T11:57:32.799Z,24.6
2023-05-08T11:58:33.674Z,24.4
2023-05-08T11:59:34.651Z,24.4
2023-05-08T12:00:51.152Z,24.1
2023-05-08T12:02:54.785Z,25.1
2023-05-08T12:03:56.017Z,25
2023-05-08T12:04:57.213Z,24.8
2023-05-08T12:05:58.674Z,24.2
2023-05-08T12:06:59.689Z,24.6
2023-05-08T12:08:00.811Z,23.7
2023-05-08T12:09:01.641Z,23.7
2023-05-08T12:10:02.861Z,23.7
2023-05-08T12:11:04.269Z,23.9
2023-05-08T12:12:05.778Z,24.1
2023-05-08T12:13:06.746Z,24.6
2023-05-08T12:14:07.632Z,25.1
2023-05-08T12:15:08.778Z,24.9
2023-05-08T12:16:09.660Z,24.5
2023-05-08T12:17:10.697Z,24
2023-05-08T12:18:11.738Z,24.1
2023-05-08T12:19:13.278Z,24.5
2023-05-08T12:20:15.101Z,24.2
2023-05-08T12:21:15.651Z,24.1
2023-05-08T12:22:16.712Z,24.3
2023-05-08T12:23:17.731Z,23.2
2023-05-08T12:24:18.756Z,23.7
2023-05-08T12:25:19.749Z,23.4
2023-05-08T12:26:20.833Z,23.1
2023-05-08T12:27:21.773Z,23.5
2023-05-08T12:28:22.927Z,23.9
2023-05-08T12:29:23.688Z,24.3
2023-05-08T12:30:24.869Z,24.2
2023-05-08T12:31:26.094Z,24.9
2023-05-08T12:32:29.162Z,25.5
2023-05-08T12:33:28.730Z,25.6
2023-05-08T12:34:29.661Z,25.4
2023-05-08T12:35:30.569Z,25.2
2023-05-08T12:36:31.621Z,24.9
2023-05-08T12:37:32.775Z,24.6
2023-05-08T12:38:33.672Z,24
2023-05-08T12:39:34.778Z,23.4
2023-05-08T12:40:35.767Z,23.2
2023-05-08T12:41:37.294Z,23
2023-05-08T12:42:38.753Z,23.1
2023-05-08T12:43:40.305Z,23.7
2023-05-08T12:44:42.228Z,23.4
2023-05-08T12:45:43.862Z,23.2
2023-05-08T12:46:44.825Z,22.9
2023-05-08T12:47:45.801Z,23
2023-05-08T12:48:46.847Z,22.9
2023-05-08T12:49:48.101Z,22.5
2023-05-08T12:50:49.044Z,22.8
2023-05-08T12:51:50.837Z,23.1
2023-05-08T12:52:52.017Z,23.5
2023-05-08T12:53:52.635Z,23.3
2023-05-08T12:54:53.634Z,23.1
2023-05-08T12:55:54.699Z,22.8
2023-05-08T12:56:56.217Z,23.1
2023-05-08T12:57:57.882Z,23.5
2023-05-08T12:58:58.709Z,23.6
2023-05-08T13:00:01.484Z,22.9
2023-05-08T13:01:00.743Z,22.4
2023-05-08T13:02:01.977Z,22.2
2023-05-08T13:03:02.943Z,22.2
2023-05-08T13:04:03.987Z,21.5
2023-05-08T13:05:04.746Z,21.5
2023-05-08T13:06:05.774Z,21.7
2023-05-08T13:07:06.751Z,21.9
2023-05-08T13:08:07.727Z,22.8
2023-05-08T13:09:08.697Z,23.4
2023-05-08T13:10:10.216Z,24.2
2023-05-08T13:11:11.713Z,24.8
2023-05-08T13:12:15.824Z,24
2023-05-08T13:13:16.695Z,23.2
2023-05-08T13:14:17.877Z,22.6
2023-05-08T13:15:19.463Z,22.4
2023-05-08T13:16:20.676Z,22.4
2023-05-08T13:17:21.815Z,22.5
2023-05-08T13:18:22.684Z,23.1
2023-05-08T13:19:23.775Z,22.8
2023-05-08T13:20:25.224Z,22.2
2023-05-08T13:21:27.765Z,22.2
2023-05-08T13:22:26.924Z,22.4
2023-05-08T13:23:27.679Z,22.9
2023-05-08T13:24:29.454Z,22.7
2023-05-08T13:25:30.811Z,22.8
2023-05-08T13:26:31.875Z,22.8
2023-05-08T13:27:32.811Z,22.6
2023-05-08T13:28:34.166Z,23.2
2023-05-08T13:29:35.743Z,23.3
2023-05-08T13:30:36.706Z,23.6
2023-05-08T13:31:38.283Z,23.4
2023-05-08T13:32:39.740Z,23.3
2023-05-08T13:33:41.035Z,22.7
2023-05-08T13:34:49.572Z,22.7
2023-05-08T13:35:42.858Z,22.8
2023-05-08T13:36:43.692Z,23.2
2023-05-08T13:37:44.874Z,23.5
2023-05-08T13:38:46.177Z,23.1
2023-05-08T13:39:47.891Z,23
2023-05-08T13:40:48.945Z,23.4
2023-05-08T13:41:49.917Z,23.2
2023-05-08T13:42:50.792Z,23.1